createdAt,value
2018-10-05T00:00:31.512Z,7.37
2018-10-05T00:02:35.067Z,7.30
2018-10-05T00:04:38.734Z,7.00
2018-10-05T00:06:42.365Z,9.47
2018-10-05T00:08:46.088Z,9.33
2018-10-05T00:10:49.812Z,10.30
2018-10-05T00:12:53.429Z,5.73
2018-10-05T00:14:57.135Z,5.60
2018-10-05T00:17:00.771Z,10.37
2018-10-05T00:19:04.469Z,12.57
2018-10-05T00:21:08.171Z,10.83
2018-10-05T00:23:11.704Z,11.47
2018-10-05T00:25:15.319Z,11.40
2018-10-05T00:27:18.934Z,9.77
2018-10-05T00:29:22.486Z,7.83
2018-10-05T00:31:26.115Z,10.40
2018-10-05T00:33:29.787Z,8.80
2018-10-05T00:35:33.319Z,9.10
2018-10-05T00:37:36.838Z,11.60
2018-10-05T00:39:40.391Z,5.93
2018-10-05T00:41:43.964Z,10.13
2018-10-05T00:43:47.538Z,6.60
2018-10-05T00:45:51.131Z,8.03
2018-10-05T00:47:54.923Z,7.43
2018-10-05T00:49:58.432Z,8.47
2018-10-05T00:52:02.037Z,17.57
2018-10-05T00:54:05.620Z,7.33
2018-10-05T00:56:09.155Z,14.93
2018-10-05T00:58:12.836Z,9.83
2018-10-05T01:00:16.403Z,10.63
2018-10-05T01:02:19.937Z,9.50
2018-10-05T01:04:23.564Z,9.20
2018-10-05T01:06:27.106Z,8.37
2018-10-05T01:08:30.678Z,7.73
2018-10-05T01:10:34.186Z,11.43
2018-10-05T01:12:37.880Z,9.03
2018-10-05T01:14:41.508Z,9.83
2018-10-05T01:16:45.278Z,11.13
2018-10-05T01:18:49.102Z,8.33
2018-10-05T01:20:52.769Z,12.27
2018-10-05T01:22:56.375Z,9.43
2018-10-05T01:25:00.191Z,9.30
2018-10-05T01:27:03.648Z,6.67
2018-10-05T01:29:07.297Z,8.30
2018-10-05T01:31:10.988Z,9.07
2018-10-05T01:33:14.541Z,12.70
2018-10-05T01:35:19.152Z,8.90
2018-10-05T01:37:22.717Z,8.87
2018-10-05T01:39:26.288Z,11.17
2018-10-05T01:41:29.918Z,9.10
2018-10-05T01:43:33.484Z,12.03
2018-10-05T01:45:37.270Z,10.03
2018-10-05T01:47:40.767Z,13.50
2018-10-05T01:49:44.424Z,11.33
2018-10-05T01:51:47.975Z,13.63
2018-10-05T01:53:51.505Z,11.50
2018-10-05T01:55:55.064Z,17.67
2018-10-05T01:57:58.600Z,13.93
2018-10-05T02:00:02.221Z,12.27
2018-10-05T02:02:05.853Z,12.93
2018-10-05T02:04:09.563Z,13.33
2018-10-05T02:06:13.183Z,14.07
2018-10-05T02:08:16.865Z,11.03
2018-10-05T02:10:20.550Z,10.27
2018-10-05T02:12:24.102Z,11.43
2018-10-05T02:14:27.673Z,12.27
2018-10-05T02:16:31.286Z,9.97
2018-10-05T02:18:34.893Z,11.30
2018-10-05T02:20:38.426Z,12.27
2018-10-05T02:22:42.008Z,11.23
2018-10-05T02:24:45.608Z,9.73
2018-10-05T02:26:49.161Z,10.80
2018-10-05T02:28:52.913Z,12.17
2018-10-05T02:30:56.500Z,10.97
2018-10-05T02:33:00.363Z,10.87
2018-10-05T02:35:04.592Z,10.90
2018-10-05T02:37:08.182Z,10.40
2018-10-05T02:39:13.159Z,10.10
2018-10-05T02:41:16.704Z,12.87
2018-10-05T02:43:20.233Z,10.13
2018-10-05T02:45:23.836Z,7.33
2018-10-05T02:47:27.440Z,11.87
2018-10-05T02:49:30.953Z,9.13
2018-10-05T02:51:34.529Z,11.03
2018-10-05T02:53:38.046Z,12.07
2018-10-05T02:55:41.570Z,10.13
2018-10-05T02:57:45.246Z,11.60
2018-10-05T02:59:48.999Z,7.57
2018-10-05T03:02:03.964Z,7.47
2018-10-05T03:04:07.459Z,6.43
2018-10-05T03:06:11.084Z,9.63
2018-10-05T03:08:14.757Z,7.27
2018-10-05T03:10:18.791Z,7.47
2018-10-05T03:12:22.344Z,10.73
2018-10-05T03:14:26.100Z,6.30
2018-10-05T03:16:29.675Z,8.77
2018-10-05T03:18:33.426Z,8.97
2018-10-05T03:20:37.114Z,8.37
2018-10-05T03:22:40.675Z,7.83
2018-10-05T03:24:44.212Z,7.47
2018-10-05T03:26:47.716Z,10.10
2018-10-05T03:28:51.205Z,11.23
2018-10-05T03:30:54.737Z,8.20
2018-10-05T03:32:58.432Z,10.23
2018-10-05T03:35:02.343Z,7.73
2018-10-05T03:37:06.283Z,10.70
2018-10-05T03:39:09.825Z,10.47
2018-10-05T03:41:19.941Z,13.70
2018-10-05T03:43:23.963Z,11.13
2018-10-05T03:45:27.473Z,16.10
2018-10-05T03:47:31.148Z,9.40
2018-10-05T03:49:34.664Z,12.80
2018-10-05T03:51:38.233Z,17.93
2018-10-05T03:53:41.859Z,13.23
2018-10-05T03:55:45.367Z,14.53
2018-10-05T03:57:48.884Z,10.20
2018-10-05T03:59:52.455Z,9.40
2018-10-05T04:01:56.252Z,10.43
2018-10-05T04:03:59.895Z,12.47
2018-10-05T04:06:03.433Z,12.20
2018-10-05T04:08:06.947Z,13.00
2018-10-05T04:10:10.473Z,10.07
2018-10-05T04:12:13.966Z,9.97
2018-10-05T04:14:17.804Z,10.33
2018-10-05T04:16:21.333Z,9.07
2018-10-05T04:18:24.912Z,7.27
2018-10-05T04:20:28.487Z,9.50
2018-10-05T04:22:32.111Z,10.43
2018-10-05T04:24:35.904Z,9.23
2018-10-05T04:26:39.557Z,10.27
2018-10-05T04:28:43.059Z,11.07
2018-10-05T04:30:46.576Z,10.63
2018-10-05T04:32:50.087Z,11.43
2018-10-05T04:34:53.617Z,13.13
2018-10-05T04:36:57.131Z,14.43
2018-10-05T04:39:00.677Z,17.90
2018-10-05T04:41:04.209Z,15.77
2018-10-05T04:43:07.764Z,12.80
2018-10-05T04:45:11.281Z,15.23
2018-10-05T04:47:14.799Z,15.67
2018-10-05T04:49:18.332Z,11.80
2018-10-05T04:51:21.940Z,9.57
2018-10-05T04:53:25.797Z,9.33
2018-10-05T04:55:29.305Z,10.57
2018-10-05T04:57:35.784Z,13.60
2018-10-05T04:59:39.289Z,11.13
2018-10-05T05:01:42.852Z,15.83
2018-10-05T05:03:46.452Z,9.90
2018-10-05T05:05:49.939Z,13.07
2018-10-05T05:07:53.800Z,7.63
2018-10-05T05:09:57.319Z,8.33
2018-10-05T05:12:00.982Z,8.27
2018-10-05T05:14:04.514Z,10.00
2018-10-05T05:16:08.082Z,9.83
2018-10-05T05:18:11.620Z,11.33
2018-10-05T05:20:15.247Z,9.30
2018-10-05T05:22:18.772Z,10.67
2018-10-05T05:24:22.688Z,11.17
2018-10-05T05:26:26.485Z,12.03
2018-10-05T05:28:29.978Z,15.30
2018-10-05T05:30:33.568Z,10.47
2018-10-05T05:32:37.101Z,9.40
2018-10-05T05:34:40.614Z,9.07
2018-10-05T05:36:44.228Z,9.97
2018-10-05T05:38:47.743Z,8.70
2018-10-05T05:40:51.396Z,9.97
2018-10-05T05:42:54.917Z,10.33
2018-10-05T05:44:58.435Z,13.70
2018-10-05T05:47:02.119Z,8.97
2018-10-05T05:49:05.700Z,9.50
2018-10-05T05:51:09.251Z,8.13
2018-10-05T05:53:12.756Z,9.87
2018-10-05T05:55:16.406Z,12.53
2018-10-05T05:57:19.944Z,11.40
2018-10-05T05:59:23.466Z,13.00
2018-10-05T06:01:27.307Z,8.70
2018-10-05T06:03:30.903Z,10.10
2018-10-05T06:05:34.444Z,13.43
2018-10-05T06:07:37.956Z,17.43
2018-10-05T06:09:41.589Z,15.57
2018-10-05T06:11:45.232Z,20.53
2018-10-05T06:13:48.931Z,16.77
2018-10-05T06:15:52.510Z,15.37
2018-10-05T06:17:56.045Z,15.67
2018-10-05T06:19:59.553Z,24.70
2018-10-05T06:22:03.189Z,18.77
2018-10-05T06:24:06.749Z,17.63
2018-10-05T06:26:10.368Z,19.67
2018-10-05T06:28:13.866Z,24.90
2018-10-05T06:30:17.608Z,22.97
2018-10-05T06:32:21.315Z,22.10
2018-10-05T06:34:24.975Z,20.20
2018-10-05T06:36:28.571Z,22.77
2018-10-05T06:38:32.208Z,19.43
2018-10-05T06:40:35.898Z,13.50
2018-10-05T06:42:39.611Z,15.40
2018-10-05T06:44:43.156Z,12.50
2018-10-05T06:46:46.761Z,14.57
2018-10-05T06:48:50.261Z,15.20
2018-10-05T06:50:53.888Z,17.27
2018-10-05T06:52:57.412Z,13.67
2018-10-05T06:55:00.916Z,18.00
2018-10-05T06:57:04.520Z,13.73
2018-10-05T06:59:08.513Z,22.57
2018-10-05T07:01:12.012Z,13.70
2018-10-05T07:03:15.547Z,12.17
2018-10-05T07:05:19.029Z,13.80
2018-10-05T07:07:22.728Z,18.30
2018-10-05T07:09:26.393Z,18.77
2018-10-05T07:11:29.955Z,16.43
2018-10-05T07:13:33.644Z,15.83
2018-10-05T07:15:37.208Z,16.43
2018-10-05T07:17:40.800Z,16.57
2018-10-05T07:19:44.488Z,18.33
2018-10-05T07:21:48.096Z,18.20
2018-10-05T07:23:51.684Z,16.80
2018-10-05T07:25:55.187Z,14.10
2018-10-05T07:27:58.696Z,17.37
2018-10-05T07:30:02.270Z,18.90
2018-10-05T07:32:05.873Z,16.40
2018-10-05T07:34:09.616Z,17.57
2018-10-05T07:36:13.224Z,18.07
2018-10-05T07:38:16.982Z,18.80
2018-10-05T07:40:20.506Z,21.20
2018-10-05T07:42:24.032Z,20.80
2018-10-05T07:44:27.656Z,22.20
2018-10-05T07:46:31.193Z,22.37
2018-10-05T07:48:34.760Z,21.77
2018-10-05T07:50:38.411Z,16.30
2018-10-05T07:52:42.177Z,17.97
2018-10-05T07:54:45.687Z,19.93
2018-10-05T07:56:49.288Z,23.03
2018-10-05T07:58:52.933Z,21.87
2018-10-05T08:00:56.560Z,28.13
2018-10-05T08:03:00.251Z,22.27
2018-10-05T08:05:03.770Z,19.93
2018-10-05T08:07:07.321Z,17.63
2018-10-05T08:09:11.065Z,19.23
2018-10-05T08:11:14.628Z,22.37
2018-10-05T08:13:18.133Z,28.57
2018-10-05T08:15:21.735Z,22.57
2018-10-05T08:17:25.264Z,25.27
2018-10-05T08:19:28.796Z,23.90
2018-10-05T08:21:32.390Z,28.80
2018-10-05T08:23:36.090Z,24.63
2018-10-05T08:25:39.650Z,23.50
2018-10-05T08:27:43.202Z,23.97
2018-10-05T08:29:46.873Z,27.67
2018-10-05T08:31:50.463Z,27.03
2018-10-05T08:33:54.108Z,27.20
2018-10-05T08:35:57.670Z,24.90
2018-10-05T08:38:01.256Z,23.83
2018-10-05T08:40:05.240Z,27.90
2018-10-05T08:42:08.799Z,27.60
2018-10-05T08:44:12.367Z,33.10
2018-10-05T08:46:15.993Z,23.07
2018-10-05T08:48:19.541Z,25.93
2018-10-05T08:50:23.095Z,25.90
2018-10-05T08:52:26.791Z,25.70
2018-10-05T08:54:30.302Z,29.27
2018-10-05T08:56:33.879Z,32.83
2018-10-05T08:58:37.510Z,31.47
2018-10-05T09:00:41.060Z,33.27
2018-10-05T09:02:44.583Z,31.77
2018-10-05T09:04:48.126Z,35.17
2018-10-05T09:06:51.772Z,31.00
2018-10-05T09:08:55.291Z,32.83
2018-10-05T09:10:58.832Z,35.43
2018-10-05T09:13:02.560Z,34.73
2018-10-05T09:15:06.133Z,35.47
2018-10-05T09:17:09.642Z,35.13
2018-10-05T09:19:13.412Z,31.83
2018-10-05T09:21:16.935Z,32.00
2018-10-05T09:23:20.567Z,37.93
2018-10-05T09:25:24.097Z,32.40
2018-10-05T09:27:27.811Z,35.03
2018-10-05T09:29:31.435Z,32.23
2018-10-05T09:31:34.996Z,25.97
2018-10-05T09:33:38.625Z,33.90
2018-10-05T09:35:42.263Z,31.57
2018-10-05T09:37:45.898Z,28.60
2018-10-05T09:39:49.519Z,35.97
2018-10-05T09:41:53.310Z,35.43
2018-10-05T09:43:57.096Z,31.03
2018-10-05T09:46:00.895Z,39.87
2018-10-05T09:48:04.700Z,29.23
2018-10-05T09:50:08.289Z,32.83
2018-10-05T09:52:11.872Z,33.43
2018-10-05T09:54:15.819Z,33.10
2018-10-05T09:56:19.365Z,30.10
2018-10-05T09:58:23.083Z,35.60
2018-10-05T10:00:32.102Z,36.37
2018-10-05T10:02:41.227Z,32.97
2018-10-05T10:04:44.760Z,28.00
2018-10-05T10:06:48.424Z,30.23
2018-10-05T10:08:51.935Z,31.83
2018-10-05T10:10:55.713Z,28.80
2018-10-05T10:12:59.234Z,36.13
2018-10-05T10:15:03.051Z,29.57
2018-10-05T10:17:06.692Z,25.43
2018-10-05T10:19:10.324Z,31.97
2018-10-05T10:21:13.867Z,27.77
2018-10-05T10:23:17.380Z,33.23
2018-10-05T10:25:20.943Z,28.23
2018-10-05T10:27:24.471Z,31.50
2018-10-05T10:29:28.092Z,29.30
2018-10-05T10:31:38.099Z,27.47
2018-10-05T10:33:41.675Z,29.07
2018-10-05T10:35:45.261Z,28.40
2018-10-05T10:37:48.874Z,27.30
2018-10-05T10:39:52.565Z,28.37
2018-10-05T10:41:56.064Z,29.90
2018-10-05T10:43:59.632Z,24.73
2018-10-05T10:46:03.243Z,33.63
2018-10-05T10:48:07.188Z,27.20
2018-10-05T10:50:10.660Z,29.13
2018-10-05T10:52:14.169Z,28.63
2018-10-05T10:54:24.216Z,27.53
2018-10-05T10:56:27.717Z,27.67
2018-10-05T10:58:31.414Z,25.67
2018-10-05T11:00:35.057Z,33.17
2018-10-05T11:02:38.596Z,32.30
2018-10-05T11:04:42.190Z,31.07
2018-10-05T11:06:45.832Z,26.00
2018-10-05T11:08:49.502Z,22.53
2018-10-05T11:10:53.048Z,24.20
2018-10-05T11:12:56.743Z,32.33
2018-10-05T11:15:00.323Z,28.90
2018-10-05T11:17:03.999Z,27.13
2018-10-05T11:19:07.540Z,25.10
2018-10-05T11:21:11.060Z,29.40
2018-10-05T11:23:14.763Z,29.23
2018-10-05T11:25:18.129Z,25.10
2018-10-05T11:27:21.711Z,30.87
2018-10-05T11:29:25.208Z,26.37
2018-10-05T11:31:29.095Z,27.07
2018-10-05T11:33:32.611Z,25.37
2018-10-05T11:35:36.099Z,24.43
2018-10-05T11:37:39.627Z,27.97
2018-10-05T11:39:43.131Z,25.20
2018-10-05T11:41:46.803Z,26.30
2018-10-05T11:43:50.675Z,25.10
2018-10-05T11:45:54.231Z,25.27
2018-10-05T11:47:57.776Z,25.50
2018-10-05T11:50:01.446Z,23.80
2018-10-05T11:52:05.155Z,26.77
2018-10-05T11:54:08.728Z,25.63
2018-10-05T11:56:12.323Z,24.90
2018-10-05T11:58:15.906Z,26.83
2018-10-05T12:00:19.531Z,27.63
2018-10-05T12:02:23.186Z,23.00
2018-10-05T12:04:26.745Z,32.10
2018-10-05T12:06:30.279Z,24.77
2018-10-05T12:08:33.927Z,24.13
2018-10-05T12:10:37.443Z,22.67
2018-10-05T12:12:41.044Z,21.33
2018-10-05T12:14:44.800Z,23.30
2018-10-05T12:16:48.361Z,23.50
2018-10-05T12:18:51.949Z,25.00
2018-10-05T12:20:55.496Z,21.37
2018-10-05T12:22:59.018Z,19.73
2018-10-05T12:25:02.577Z,23.90
2018-10-05T12:27:06.141Z,23.30
2018-10-05T12:29:09.802Z,25.77
2018-10-05T12:31:13.353Z,23.83
2018-10-05T12:33:17.007Z,25.67
2018-10-05T12:35:20.547Z,28.13
2018-10-05T12:37:24.313Z,27.07
2018-10-05T12:39:27.937Z,23.33
2018-10-05T12:41:31.524Z,20.80
2018-10-05T12:43:35.171Z,22.50
2018-10-05T12:45:38.901Z,21.77
2018-10-05T12:47:42.447Z,23.87
2018-10-05T12:49:46.000Z,23.90
2018-10-05T12:51:49.505Z,24.83
2018-10-05T12:53:53.060Z,21.03
2018-10-05T12:55:56.593Z,26.50
2018-10-05T12:58:00.152Z,22.40
2018-10-05T13:00:03.795Z,21.30
2018-10-05T13:02:07.458Z,20.63
2018-10-05T13:04:11.167Z,23.80
2018-10-05T13:06:14.709Z,23.57
2018-10-05T13:08:18.209Z,21.07
2018-10-05T13:10:21.933Z,19.60
2018-10-05T13:12:25.532Z,22.27
2018-10-05T13:14:29.263Z,22.23
2018-10-05T13:16:33.194Z,20.83
2018-10-05T13:18:37.172Z,25.80
2018-10-05T13:20:40.850Z,22.03
2018-10-05T13:22:44.451Z,20.97
2018-10-05T13:24:48.051Z,22.83
2018-10-05T13:26:51.797Z,19.30
2018-10-05T13:28:55.329Z,19.83
2018-10-05T13:30:58.957Z,21.27
2018-10-05T13:33:02.625Z,21.53
2018-10-05T13:35:06.402Z,17.17
2018-10-05T13:37:09.964Z,22.67
2018-10-05T13:39:13.482Z,21.27
2018-10-05T13:41:17.034Z,23.13
2018-10-05T13:43:20.588Z,23.37
2018-10-05T13:45:24.103Z,22.10
2018-10-05T13:47:27.630Z,22.47
2018-10-05T13:49:31.222Z,19.13
2018-10-05T13:51:36.053Z,20.90
2018-10-05T13:53:39.648Z,22.93
2018-10-05T13:55:43.221Z,23.27
2018-10-05T13:57:46.956Z,20.90
2018-10-05T13:59:50.470Z,20.93
2018-10-05T14:01:54.108Z,19.17
2018-10-05T14:03:57.743Z,19.33
2018-10-05T14:06:01.522Z,20.10
2018-10-05T14:08:05.122Z,19.97
2018-10-05T14:10:08.683Z,17.80
2018-10-05T14:12:12.312Z,21.00
2018-10-05T14:14:16.092Z,16.17
2018-10-05T14:16:19.729Z,22.13
2018-10-05T14:18:23.261Z,16.83
2018-10-05T14:20:26.905Z,18.10
2018-10-05T14:22:30.372Z,20.00
2018-10-05T14:24:33.892Z,18.70
2018-10-05T14:26:37.433Z,18.83
2018-10-05T14:28:40.939Z,18.40
2018-10-05T14:30:44.757Z,18.43
2018-10-05T14:32:48.460Z,20.93
2018-10-05T14:34:52.069Z,15.93
2018-10-05T14:36:55.669Z,13.87
2018-10-05T14:38:59.222Z,18.03
2018-10-05T14:41:02.736Z,17.80
2018-10-05T14:43:06.311Z,15.90
2018-10-05T14:45:09.929Z,14.23
2018-10-05T14:47:13.483Z,16.70
2018-10-05T14:49:17.134Z,17.20
2018-10-05T14:51:20.681Z,14.37
2018-10-05T14:53:24.315Z,16.00
2018-10-05T14:55:28.002Z,17.43
2018-10-05T14:57:31.565Z,15.47
2018-10-05T14:59:35.043Z,13.43
2018-10-05T15:01:38.565Z,14.60
2018-10-05T15:03:42.315Z,11.57
2018-10-05T15:05:45.869Z,12.70
2018-10-05T15:07:49.359Z,17.33
2018-10-05T15:09:52.956Z,14.83
2018-10-05T15:11:56.573Z,13.43
2018-10-05T15:14:00.167Z,22.73
2018-10-05T15:16:03.993Z,13.77
2018-10-05T15:18:07.671Z,18.63
2018-10-05T15:20:11.255Z,13.87
2018-10-05T15:22:14.828Z,20.27
2018-10-05T15:24:18.351Z,16.30
2018-10-05T15:26:21.832Z,14.63
2018-10-05T15:28:25.357Z,16.73
2018-10-05T15:30:28.954Z,12.57
2018-10-05T15:32:32.710Z,12.60
2018-10-05T15:34:36.502Z,14.67
2018-10-05T15:36:40.172Z,14.93
2018-10-05T15:38:43.717Z,17.50
2018-10-05T15:40:47.171Z,15.77
2018-10-05T15:42:53.767Z,19.23
2018-10-05T15:44:57.857Z,13.77
2018-10-05T15:47:05.047Z,15.47
2018-10-05T15:49:08.697Z,18.67
2018-10-05T15:51:12.191Z,18.20
2018-10-05T15:53:15.721Z,16.17
2018-10-05T15:55:19.342Z,13.30
2018-10-05T15:57:23.110Z,13.17
2018-10-05T15:59:27.225Z,13.87
2018-10-05T16:01:30.809Z,16.30
2018-10-05T16:03:34.482Z,13.83
2018-10-05T16:05:38.043Z,12.70
2018-10-05T16:07:41.741Z,15.47
2018-10-05T16:09:45.362Z,12.70
2018-10-05T16:11:48.994Z,12.93
2018-10-05T16:13:52.543Z,13.23
2018-10-05T16:15:56.136Z,12.37
2018-10-05T16:17:59.696Z,17.00
2018-10-05T16:20:03.512Z,21.00
2018-10-05T16:22:07.158Z,17.77
2018-10-05T16:24:14.441Z,17.43
2018-10-05T16:26:18.002Z,16.10
2018-10-05T16:28:21.506Z,25.37
2018-10-05T16:30:25.057Z,16.43
2018-10-05T16:32:28.656Z,21.47
2018-10-05T16:34:32.627Z,16.33
2018-10-05T16:36:36.169Z,12.50
2018-10-05T16:38:39.872Z,12.37
2018-10-05T16:40:43.378Z,12.10
2018-10-05T16:42:47.120Z,17.07
2018-10-05T16:44:50.633Z,16.90
2018-10-05T16:46:54.440Z,16.37
2018-10-05T16:48:57.992Z,18.03
2018-10-05T16:51:01.572Z,15.57
2018-10-05T16:53:05.124Z,16.30
2018-10-05T16:55:08.682Z,11.40
2018-10-05T16:57:12.243Z,12.60
2018-10-05T16:59:15.749Z,13.43
2018-10-05T17:01:19.343Z,11.17
2018-10-05T17:03:22.999Z,13.40
2018-10-05T17:05:26.537Z,12.73
2018-10-05T17:07:30.159Z,13.47
2018-10-05T17:09:33.718Z,18.37
2018-10-05T17:11:38.682Z,18.80
2018-10-05T17:13:42.307Z,15.57
2018-10-05T17:15:45.896Z,13.00
2018-10-05T17:17:49.460Z,21.70
2018-10-05T17:19:53.014Z,24.10
2018-10-05T17:21:56.541Z,20.03
2018-10-05T17:24:00.091Z,22.83
2018-10-05T17:26:03.688Z,19.33
2018-10-05T17:28:07.356Z,21.13
2018-10-05T17:30:10.952Z,17.43
2018-10-05T17:32:14.522Z,19.73
2018-10-05T17:34:18.111Z,17.37
2018-10-05T17:36:21.859Z,16.27
2018-10-05T17:38:25.439Z,13.53
2018-10-05T17:40:28.967Z,17.27
2018-10-05T17:42:32.570Z,12.83
2018-10-05T17:44:36.124Z,20.50
2018-10-05T17:46:39.655Z,18.40
2018-10-05T17:48:43.302Z,17.50
2018-10-05T17:50:47.017Z,18.30
2018-10-05T17:52:50.915Z,19.97
2018-10-05T17:54:54.556Z,21.37
2018-10-05T17:56:58.115Z,21.33
2018-10-05T17:59:01.859Z,20.90
2018-10-05T18:01:05.549Z,21.50
2018-10-05T18:03:09.105Z,22.80
2018-10-05T18:05:12.797Z,21.87
2018-10-05T18:07:16.408Z,26.83
2018-10-05T18:09:19.951Z,18.40
2018-10-05T18:11:23.621Z,13.93
2018-10-05T18:13:27.273Z,13.03
2018-10-05T18:15:31.008Z,10.63
2018-10-05T18:17:34.659Z,8.90
2018-10-05T18:19:38.318Z,8.67
2018-10-05T18:21:42.055Z,7.63
2018-10-05T18:23:45.612Z,9.27
2018-10-05T18:25:49.332Z,13.77
2018-10-05T18:27:52.947Z,8.30
2018-10-05T18:29:56.487Z,12.73
2018-10-05T18:32:00.132Z,19.63
2018-10-05T18:36:14.481Z,12.30
2018-10-05T18:38:18.095Z,13.83
2018-10-05T18:40:21.648Z,12.20
2018-10-05T18:42:25.373Z,12.20
2018-10-05T18:44:28.926Z,11.47
2018-10-05T18:46:32.488Z,7.73
2018-10-05T18:48:36.087Z,8.20
2018-10-05T18:50:39.684Z,10.23
2018-10-05T18:52:43.399Z,9.07
2018-10-05T18:54:46.937Z,10.03
2018-10-05T18:57:01.818Z,10.27
2018-10-05T18:59:05.567Z,9.83
2018-10-05T19:01:09.210Z,12.57
2018-10-05T19:03:12.809Z,10.97
2018-10-05T19:05:16.389Z,12.83
2018-10-05T19:07:20.130Z,15.33
2018-10-05T19:09:23.652Z,9.90
2018-10-05T19:11:27.309Z,9.53
2018-10-05T19:13:30.962Z,9.07
2018-10-05T19:15:34.491Z,11.63
2018-10-05T19:17:38.118Z,8.33
2018-10-05T19:19:41.726Z,10.87
2018-10-05T19:21:45.272Z,8.63
2018-10-05T19:23:48.835Z,10.10
2018-10-05T19:25:52.472Z,15.67
2018-10-05T19:27:56.035Z,9.07
2018-10-05T19:29:59.784Z,10.23
2018-10-05T19:32:03.291Z,9.60
2018-10-05T19:34:06.871Z,7.30
2018-10-05T19:36:10.406Z,8.90
2018-10-05T19:38:13.940Z,11.03
2018-10-05T19:40:17.496Z,9.70
2018-10-05T19:42:21.193Z,7.70
2018-10-05T19:44:24.753Z,10.53
2018-10-05T19:46:28.315Z,8.97
2018-10-05T19:48:31.958Z,8.00
2018-10-05T19:50:35.657Z,12.40
2018-10-05T19:52:39.264Z,11.70
2018-10-05T19:54:42.779Z,9.97
2018-10-05T19:56:46.366Z,9.30
2018-10-05T19:58:49.948Z,10.97
2018-10-05T20:00:53.512Z,10.90
2018-10-05T20:02:57.063Z,10.23
2018-10-05T20:05:00.659Z,13.63
2018-10-05T20:07:04.336Z,11.10
2018-10-05T20:09:08.533Z,9.93
2018-10-05T20:11:12.091Z,11.30
2018-10-05T20:13:15.781Z,14.30
2018-10-05T20:15:19.380Z,12.17
2018-10-05T20:17:23.063Z,11.27
2018-10-05T20:19:26.864Z,12.83
2018-10-05T20:21:30.418Z,10.77
2018-10-05T20:23:33.954Z,11.17
2018-10-05T20:25:37.540Z,9.17
2018-10-05T20:27:41.095Z,11.53
2018-10-05T20:29:44.784Z,11.30
2018-10-05T20:31:48.353Z,11.80
2018-10-05T20:33:51.870Z,9.83
2018-10-05T20:35:55.664Z,12.10
2018-10-05T20:37:59.080Z,11.27
2018-10-05T20:40:02.609Z,10.43
2018-10-05T20:42:06.180Z,13.13
2018-10-05T20:44:09.840Z,10.33
2018-10-05T20:46:13.588Z,11.33
2018-10-05T20:48:17.197Z,12.40
2018-10-05T20:50:20.800Z,14.30
2018-10-05T20:52:24.492Z,14.20
2018-10-05T20:54:28.022Z,16.67
2018-10-05T20:56:31.676Z,9.17
2018-10-05T20:58:35.288Z,12.03
2018-10-05T21:00:38.938Z,11.07
2018-10-05T21:02:42.440Z,10.20
2018-10-05T21:04:46.005Z,11.20
2018-10-05T21:06:49.659Z,8.63
2018-10-05T21:08:53.176Z,10.43
2018-10-05T21:10:56.757Z,10.67
2018-10-05T21:13:00.267Z,10.73
2018-10-05T21:15:04.112Z,10.23
2018-10-05T21:17:07.639Z,9.80
2018-10-05T21:19:11.192Z,8.03
2018-10-05T21:21:14.710Z,11.17
2018-10-05T21:23:18.291Z,10.90
2018-10-05T21:25:21.830Z,8.70
2018-10-05T21:27:25.497Z,10.57
2018-10-05T21:29:29.022Z,15.17
2018-10-05T21:31:32.530Z,9.60
2018-10-05T21:33:36.236Z,9.37
2018-10-05T21:35:39.784Z,9.50
2018-10-05T21:37:43.351Z,9.93
2018-10-05T21:39:47.035Z,10.97
2018-10-05T21:41:50.703Z,9.00
2018-10-05T21:43:54.251Z,10.27
2018-10-05T21:45:57.794Z,8.63
2018-10-05T21:48:01.349Z,9.23
2018-10-05T21:50:05.215Z,9.73
2018-10-05T21:52:08.876Z,11.80
2018-10-05T21:54:12.492Z,11.50
2018-10-05T21:56:16.088Z,11.67
2018-10-05T21:58:20.140Z,16.00
2018-10-05T22:00:23.772Z,14.20
2018-10-05T22:02:31.522Z,11.10
2018-10-05T22:04:35.351Z,11.77
2018-10-05T22:06:38.855Z,11.43
2018-10-05T22:08:42.519Z,10.67
2018-10-05T22:10:46.091Z,10.93
2018-10-05T22:12:49.605Z,11.83
2018-10-05T22:14:53.155Z,9.00
2018-10-05T22:16:56.841Z,11.80
2018-10-05T22:19:00.360Z,12.63
2018-10-05T22:21:04.068Z,13.47
2018-10-05T22:23:07.593Z,11.50
2018-10-05T22:25:11.123Z,9.13
2018-10-05T22:27:14.691Z,10.50
2018-10-05T22:29:18.382Z,10.47
2018-10-05T22:31:21.898Z,10.93
2018-10-05T22:33:25.449Z,13.73
2018-10-05T22:35:29.292Z,16.83
2018-10-05T22:37:32.847Z,10.73
2018-10-05T22:39:36.438Z,10.00
2018-10-05T22:41:39.923Z,9.13
2018-10-05T22:43:43.447Z,12.63
2018-10-05T22:45:47.114Z,11.33
2018-10-05T22:47:50.614Z,9.87
2018-10-05T22:49:54.681Z,9.97
2018-10-05T22:51:58.196Z,9.07
2018-10-05T22:54:01.747Z,10.33
2018-10-05T22:56:05.520Z,12.67
2018-10-05T22:58:09.035Z,10.73
2018-10-05T23:02:19.391Z,12.43
2018-10-05T23:04:22.993Z,11.60
2018-10-05T23:06:26.530Z,11.67
2018-10-05T23:08:30.015Z,12.50
2018-10-05T23:10:33.647Z,10.40
2018-10-05T23:12:37.280Z,14.00
2018-10-05T23:14:40.896Z,9.67
2018-10-05T23:16:44.498Z,10.13
2018-10-05T23:18:48.142Z,8.83
2018-10-05T23:20:51.672Z,9.60
2018-10-05T23:22:55.326Z,11.70
2018-10-05T23:24:58.813Z,9.27
2018-10-05T23:27:02.308Z,10.70
2018-10-05T23:29:06.081Z,8.97
2018-10-05T23:31:09.552Z,12.00
2018-10-05T23:33:13.188Z,10.67
2018-10-05T23:35:16.704Z,10.77
2018-10-05T23:37:20.299Z,12.03
2018-10-05T23:39:23.850Z,10.43
2018-10-05T23:41:27.402Z,10.23
2018-10-05T23:43:37.546Z,10.20
2018-10-05T23:45:41.043Z,7.77
2018-10-05T23:47:44.568Z,9.33
2018-10-05T23:49:48.136Z,10.77
2018-10-05T23:51:51.668Z,10.57
2018-10-05T23:53:55.219Z,10.40
2018-10-05T23:55:58.748Z,8.70
2018-10-05T23:58:02.284Z,8.93
